Time;durP1;ratioP1;P1;durP2;ratioP2;P2;SDS_P1;SDS_P2;PMS_P1;PMS_P2;Temp;Humidity;BMP_temperature;BMP_pressure;BME280_temperature;BME280_humidity;BME280_pressure;Samples;Min_cycle;Max_cycle;Signal;HPM_P1;HPM_P2
2022/04/07 00:02:13;;;;;;;0.20;0.20;;;9.70;99.90;;;;;;5015433;28;20481;-74
2022/04/07 00:04:39;;;;;;;0.20;0.20;;;9.70;99.90;;;;;;5033120;28;20434;-74
2022/04/07 00:07:05;;;;;;;0.10;0.10;;;9.70;99.90;;;;;;5031556;28;20527;-74
2022/04/07 00:09:31;;;;;;;0.52;0.52;;;9.80;99.90;;;;;;5032963;28;20104;-74
2022/04/07 00:11:57;;;;;;;0.10;0.10;;;9.70;99.90;;;;;;5032952;28;20083;-74
2022/04/07 00:14:22;;;;;;;2.17;0.30;;;9.70;99.90;;;;;;5030823;28;20508;-74
2022/04/07 00:16:48;;;;;;;2.35;1.08;;;9.60;99.90;;;;;;5031411;28;20429;-74
2022/04/07 00:19:14;;;;;;;0.40;0.40;;;9.50;99.90;;;;;;5032850;28;20040;-74
2022/04/07 00:21:46;;;;;;;0.47;0.35;;;9.40;99.90;;;;;;5032670;28;20033;-74
2022/04/07 00:24:12;;;;;;;0.20;0.20;;;9.30;99.90;;;;;;5031492;28;20021;-74
2022/04/07 00:26:37;;;;;;;0.20;0.20;;;9.40;99.90;;;;;;5031259;28;20433;-74
2022/04/07 00:29:04;;;;;;;0.20;0.20;;;9.40;99.90;;;;;;5031347;28;20132;-74
2022/04/07 00:31:40;;;;;;;0.55;0.50;;;9.40;99.90;;;;;;5032532;28;20029;-75
2022/04/07 00:34:09;;;;;;;0.20;0.20;;;9.40;99.90;;;;;;5031061;28;20034;-74
2022/04/07 00:36:35;;;;;;;0.22;0.22;;;9.40;99.90;;;;;;5031098;28;20041;-75
2022/04/07 00:39:01;;;;;;;0.10;0.10;;;9.30;99.90;;;;;;5031168;28;20539;-75
2022/04/07 00:41:26;;;;;;;0.65;0.63;;;9.30;99.90;;;;;;5031175;28;20021;-75
2022/04/07 00:43:52;;;;;;;0.50;0.50;;;9.20;99.90;;;;;;5031172;28;20033;-76
2022/04/07 00:46:19;;;;;;;0.20;0.20;;;9.20;99.90;;;;;;5030874;28;20021;-75
2022/04/07 00:48:45;;;;;;;0.40;0.40;;;9.10;99.90;;;;;;5031061;28;20032;-75
2022/04/07 00:51:11;;;;;;;0.20;0.20;;;9.10;99.90;;;;;;5032286;28;20025;-75
2022/04/07 00:53:38;;;;;;;0.20;0.20;;;9.00;99.90;;;;;;5032291;28;20021;-74
2022/04/07 00:56:07;;;;;;;0.70;0.50;;;9.00;99.90;;;;;;5030889;28;20032;-75
2022/04/07 00:58:33;;;;;;;0.17;0.17;;;9.00;99.90;;;;;;5014428;28;20021;-75
2022/04/07 01:00:59;;;;;;;0.10;0.10;;;9.00;99.90;;;;;;5014253;28;20079;-75
2022/04/07 01:03:25;;;;;;;0.28;0.28;;;9.00;99.90;;;;;;5032464;28;20025;-75
2022/04/07 01:05:51;;;;;;;0.20;0.20;;;9.10;99.90;;;;;;5030499;28;20128;-75
2022/04/07 01:08:17;;;;;;;0.30;0.30;;;9.10;99.90;;;;;;5030743;28;20021;-74
2022/04/07 01:10:45;;;;;;;1.25;0.50;;;9.10;99.90;;;;;;5032250;28;20414;-75
2022/04/07 01:13:11;;;;;;;1.67;0.98;;;9.10;99.90;;;;;;5030662;28;20124;-75
2022/04/07 01:15:37;;;;;;;0.10;0.10;;;9.00;99.90;;;;;;5030360;28;20026;-74
2022/04/07 01:18:04;;;;;;;0.52;0.47;;;9.10;99.90;;;;;;5031928;28;20031;-74
2022/04/07 01:20:30;;;;;;;0.32;0.30;;;9.10;99.90;;;;;;5014143;28;20033;-75
2022/04/07 01:22:57;;;;;;;0.30;0.30;;;9.00;99.90;;;;;;5030635;28;20476;-75
2022/04/07 01:25:27;;;;;;;0.10;0.10;;;9.00;99.90;;;;;;5031809;28;20060;-75
2022/04/07 01:27:54;;;;;;;0.22;0.22;;;9.10;99.90;;;;;;5034631;28;20021;-75
2022/04/07 01:30:20;;;;;;;0.20;0.20;;;9.00;99.90;;;;;;5035877;28;20127;-75
2022/04/07 01:32:53;;;;;;;0.40;0.40;;;8.90;99.90;;;;;;5034619;28;20110;-75
2022/04/07 01:35:22;;;;;;;0.40;0.40;;;8.80;99.90;;;;;;5034381;28;20491;-75
2022/04/07 01:37:50;;;;;;;0.32;0.32;;;8.70;99.90;;;;;;5034487;28;20030;-75
2022/04/07 01:40:21;;;;;;;0.20;0.20;;;8.70;99.90;;;;;;5034514;28;20029;-75
2022/04/07 01:42:49;;;;;;;0.20;0.20;;;8.80;99.90;;;;;;5034680;28;20495;-75
2022/04/07 01:45:15;;;;;;;0.28;0.28;;;8.80;99.90;;;;;;5034338;28;20490;-75
2022/04/07 01:47:43;;;;;;;0.20;0.20;;;8.80;99.90;;;;;;5034484;28;20381;-75
2022/04/07 01:50:10;;;;;;;19.85;0.80;;;8.80;99.90;;;;;;5035580;28;20033;-75
2022/04/07 01:52:37;;;;;;;0.30;0.30;;;8.80;99.90;;;;;;5034312;28;20025;-75
2022/04/07 01:55:04;;;;;;;0.40;0.40;;;8.70;99.90;;;;;;5035536;28;20031;-74
2022/04/07 01:57:31;;;;;;;0.35;0.30;;;8.60;99.90;;;;;;5035291;28;20053;-75
2022/04/07 01:59:58;;;;;;;0.20;0.20;;;8.50;99.90;;;;;;5035466;28;20416;-74
2022/04/07 02:02:24;;;;;;;0.43;0.43;;;8.50;99.90;;;;;;5035413;28;20063;-74
2022/04/07 02:04:53;;;;;;;0.20;0.20;;;8.50;99.90;;;;;;5034094;28;20021;-75
2022/04/07 02:07:19;;;;;;;0.52;0.52;;;8.50;99.90;;;;;;5033948;28;20033;-75
2022/04/07 02:09:45;;;;;;;0.65;0.65;;;8.50;99.90;;;;;;5034063;28;20473;-75
2022/04/07 02:12:11;;;;;;;0.20;0.20;;;8.50;99.90;;;;;;5034075;28;20080;-75
2022/04/07 02:14:36;;;;;;;0.20;0.20;;;8.50;99.90;;;;;;5033887;28;20032;-75
2022/04/07 02:17:03;;;;;;;0.22;0.22;;;8.50;99.90;;;;;;5034808;28;20057;-75
2022/04/07 02:19:29;;;;;;;0.55;0.50;;;8.50;99.90;;;;;;5017344;28;20032;-75
2022/04/07 02:21:55;;;;;;;0.38;0.38;;;8.50;99.90;;;;;;5033723;28;20104;-75
2022/04/07 02:24:21;;;;;;;0.10;0.10;;;8.50;99.90;;;;;;5033603;28;20388;-75
2022/04/07 02:26:47;;;;;;;0.20;0.20;;;8.50;99.90;;;;;;5033433;28;20485;-75
2022/04/07 02:29:12;;;;;;;0.20;0.20;;;8.50;99.90;;;;;;5033748;28;20068;-75
2022/04/07 02:31:38;;;;;;;0.20;0.20;;;8.50;99.90;;;;;;5034810;28;20033;-75
2022/04/07 02:34:04;;;;;;;0.45;0.45;;;8.50;99.90;;;;;;5034666;28;20025;-75
2022/04/07 02:36:30;;;;;;;0.17;0.17;;;8.60;99.90;;;;;;5032429;28;20060;-75
2022/04/07 02:38:56;;;;;;;0.20;0.20;;;8.70;99.90;;;;;;5034525;28;20029;-75
2022/04/07 02:41:22;;;;;;;0.28;0.28;;;8.70;99.90;;;;;;5034644;28;20029;-75
2022/04/07 02:43:48;;;;;;;0.20;0.20;;;8.80;99.90;;;;;;5034597;28;20034;-75
2022/04/07 02:46:14;;;;;;;0.10;0.10;;;8.80;99.90;;;;;;5032956;28;20025;-75
2022/04/07 02:48:40;;;;;;;0.20;0.20;;;8.90;99.90;;;;;;5033256;28;20113;-75
2022/04/07 02:51:06;;;;;;;0.20;0.20;;;9.00;99.90;;;;;;5034630;28;20033;-75
2022/04/07 02:53:31;;;;;;;0.20;0.20;;;9.00;99.90;;;;;;5034526;28;20385;-75
2022/04/07 02:55:57;;;;;;;0.60;0.60;;;8.90;99.90;;;;;;5032985;28;20026;-75
2022/04/07 02:58:23;;;;;;;0.25;0.25;;;8.80;99.90;;;;;;5033024;28;20033;-75
2022/04/07 03:00:49;;;;;;;0.20;0.20;;;8.70;99.90;;;;;;5034221;28;20033;-75
2022/04/07 03:03:14;;;;;;;0.17;0.17;;;8.80;99.90;;;;;;5034206;28;20022;-75
2022/04/07 03:05:40;;;;;;;0.10;0.10;;;8.80;99.90;;;;;;5033887;28;20553;-75
2022/04/07 03:08:06;;;;;;;0.73;0.73;;;8.80;99.90;;;;;;5032930;28;20029;-75
2022/04/07 03:10:32;;;;;;;0.22;0.22;;;8.80;99.90;;;;;;5034088;28;20385;-75
2022/04/07 03:12:57;;;;;;;0.40;0.40;;;8.70;99.90;;;;;;5016377;28;20071;-75
2022/04/07 03:15:23;;;;;;;0.17;0.17;;;8.60;99.90;;;;;;5032765;28;20030;-75
2022/04/07 03:17:49;;;;;;;0.10;0.10;;;8.60;99.90;;;;;;5033737;28;20407;-75
2022/04/07 03:20:15;;;;;;;0.30;0.30;;;8.70;99.90;;;;;;5017797;28;20456;-74
2022/04/07 03:22:41;;;;;;;0.20;0.20;;;8.80;99.90;;;;;;5032622;28;20400;-74
2022/04/07 03:25:07;;;;;;;0.20;0.20;;;8.70;99.90;;;;;;5032706;28;20049;-74
2022/04/07 03:27:33;;;;;;;0.20;0.20;;;8.70;99.90;;;;;;5032444;28;20036;-75
2022/04/07 03:29:59;;;;;;;0.10;0.10;;;8.60;99.90;;;;;;5032513;28;20041;-75
2022/04/07 03:32:25;;;;;;;0.28;0.28;;;8.70;99.90;;;;;;5033628;28;20111;-75
2022/04/07 03:34:50;;;;;;;0.43;0.43;;;8.70;99.90;;;;;;5033520;28;20076;-75
2022/04/07 03:37:17;;;;;;;0.60;0.32;;;8.80;99.90;;;;;;5033398;28;20035;-75
2022/04/07 03:39:43;;;;;;;0.20;0.20;;;8.80;99.90;;;;;;5033651;28;20029;-75
2022/04/07 03:42:09;;;;;;;1.65;0.95;;;8.80;99.90;;;;;;5032164;28;20500;-75
2022/04/07 03:44:35;;;;;;;0.30;0.30;;;8.70;99.90;;;;;;5033470;28;20025;-75
2022/04/07 03:47:00;;;;;;;0.10;0.10;;;8.70;99.90;;;;;;5015393;28;20079;-75
2022/04/07 03:49:26;;;;;;;0.20;0.20;;;8.60;99.90;;;;;;5033207;28;20442;-75
2022/04/07 03:51:52;;;;;;;0.30;0.30;;;8.60;99.90;;;;;;5032144;28;20045;-75
2022/04/07 03:54:18;;;;;;;0.22;0.22;;;8.70;99.90;;;;;;5033338;28;20021;-75
2022/04/07 03:56:45;;;;;;;0.10;0.10;;;8.70;99.90;;;;;;5031693;28;20108;-75
2022/04/07 03:59:11;;;;;;;0.17;0.17;;;8.70;99.90;;;;;;5033261;28;20025;-74
2022/04/07 04:01:39;;;;;;;0.20;0.20;;;8.60;99.90;;;;;;5031931;28;20028;-74
2022/04/07 04:04:05;;;;;;;0.20;0.20;;;8.60;99.90;;;;;;5031984;28;20022;-74
2022/04/07 04:06:32;;;;;;;0.63;0.63;;;8.60;99.90;;;;;;5031588;28;20437;-74
2022/04/07 04:08:58;;;;;;;0.70;0.63;;;8.60;99.90;;;;;;5033010;28;20102;-74
2022/04/07 04:11:24;;;;;;;0.32;0.32;;;8.60;99.90;;;;;;5031514;28;20108;-74
2022/04/07 04:13:49;;;;;;;0.30;0.30;;;8.60;99.90;;;;;;5032800;28;20051;-74
2022/04/07 04:16:17;;;;;;;0.82;0.82;;;8.50;99.90;;;;;;5032576;28;20041;-74
2022/04/07 04:18:43;;;;;;;0.63;0.63;;;8.40;99.90;;;;;;5031390;28;20029;-74
2022/04/07 04:21:09;;;;;;;0.20;0.20;;;8.40;99.90;;;;;;5032819;28;20018;-74
2022/04/07 04:23:35;;;;;;;0.10;0.10;;;8.30;99.90;;;;;;5032781;28;20033;-74
2022/04/07 04:26:01;;;;;;;0.70;0.38;;;8.30;99.90;;;;;;5031260;28;20111;-74
2022/04/07 04:28:27;;;;;;;0.75;0.57;;;8.20;99.90;;;;;;5031413;28;20025;-74
2022/04/07 04:30:53;;;;;;;0.28;0.28;;;8.20;99.90;;;;;;5032424;28;20091;-74
2022/04/07 04:33:18;;;;;;;0.20;0.20;;;8.20;99.90;;;;;;5032512;28;20545;-74
2022/04/07 04:35:44;;;;;;;0.43;0.30;;;8.30;99.90;;;;;;5032605;28;20022;-76
2022/04/07 04:38:10;;;;;;;0.30;0.30;;;8.30;99.90;;;;;;5030960;28;20028;-74
2022/04/07 04:40:35;;;;;;;0.32;0.32;;;8.30;99.90;;;;;;5032493;28;20075;-75
2022/04/07 04:43:01;;;;;;;0.40;0.40;;;8.30;99.90;;;;;;5032457;28;20021;-74
2022/04/07 04:45:27;;;;;;;0.30;0.30;;;8.40;99.90;;;;;;5032120;28;20025;-74
2022/04/07 04:47:53;;;;;;;0.15;0.15;;;8.30;99.90;;;;;;5031029;28;20056;-74
2022/04/07 04:50:19;;;;;;;0.20;0.20;;;8.40;99.90;;;;;;5031038;28;20504;-76
2022/04/07 04:52:45;;;;;;;1.30;1.20;;;8.50;99.90;;;;;;5014450;28;20029;-74
2022/04/07 04:55:11;;;;;;;0.20;0.20;;;8.60;99.90;;;;;;5030877;28;20116;-75
2022/04/07 04:57:37;;;;;;;0.10;0.10;;;8.60;99.90;;;;;;5030704;28;20167;-75
2022/04/07 05:00:04;;;;;;;0.47;0.35;;;8.60;99.90;;;;;;5013854;28;20022;-75
2022/04/07 05:02:30;;;;;;;0.20;0.20;;;8.30;99.90;;;;;;5030779;28;20026;-75
2022/04/07 05:04:56;;;;;;;0.28;0.28;;;8.30;99.90;;;;;;5030652;28;20029;-75
2022/04/07 05:07:22;;;;;;;0.43;0.40;;;8.30;99.90;;;;;;5030710;28;20033;-75
2022/04/07 05:09:48;;;;;;;0.20;0.20;;;8.30;99.90;;;;;;5030939;28;20392;-75
2022/04/07 05:12:14;;;;;;;0.10;0.10;;;8.30;99.90;;;;;;5031970;28;20053;-75
2022/04/07 05:14:39;;;;;;;0.20;0.20;;;8.30;99.90;;;;;;5030803;28;20033;-75
2022/04/07 05:17:07;;;;;;;0.20;0.20;;;8.40;99.90;;;;;;5030436;28;20017;-75
2022/04/07 05:19:32;;;;;;;0.20;0.20;;;8.40;99.90;;;;;;5030658;28;20021;-75
2022/04/07 05:21:58;;;;;;;0.20;0.20;;;8.40;99.90;;;;;;5031793;28;20025;-75
2022/04/07 05:24:24;;;;;;;0.10;0.10;;;8.30;99.90;;;;;;5031774;28;20021;-75
2022/04/07 05:26:49;;;;;;;0.10;0.10;;;8.40;99.90;;;;;;5031466;28;20115;-75
2022/04/07 05:29:15;;;;;;;0.30;0.30;;;8.50;99.90;;;;;;5045059;23;20034;-71
2022/04/07 05:31:41;;;;;;;0.40;0.40;;;8.50;99.90;;;;;;5031831;28;20061;-72
2022/04/07 05:34:07;;;;;;;0.20;0.20;;;8.40;99.90;;;;;;5032129;28;20025;-72
2022/04/07 05:36:32;;;;;;;0.13;0.13;;;8.50;99.90;;;;;;5029035;28;20477;-72
2022/04/07 05:38:58;;;;;;;0.20;0.20;;;8.50;99.90;;;;;;5030334;28;20022;-72
2022/04/07 05:41:43;;;;;;;0.13;0.13;;;8.50;99.90;;;;;;5031738;28;20504;-71
2022/04/07 05:44:09;;;;;;;0.20;0.20;;;8.50;99.90;;;;;;5033704;28;20093;-70
2022/04/07 05:46:34;;;;;;;0.20;0.20;;;8.50;99.90;;;;;;5030161;28;20037;-70
2022/04/07 05:49:00;;;;;;;0.20;0.20;;;8.50;99.90;;;;;;5031732;28;20025;-70
2022/04/07 05:51:26;;;;;;;0.40;0.40;;;8.50;99.90;;;;;;5031211;28;20385;-70
2022/04/07 05:53:52;;;;;;;0.10;0.10;;;8.50;99.90;;;;;;5038962;28;20036;-70
2022/04/07 05:56:17;;;;;;;1.48;0.52;;;8.60;99.90;;;;;;5030264;28;20293;-70
2022/04/07 05:58:43;;;;;;;0.10;0.10;;;8.60;99.90;;;;;;5030287;28;20051;-70
2022/04/07 06:01:09;;;;;;;0.10;0.10;;;8.70;99.90;;;;;;5031684;28;20373;-70
2022/04/07 06:03:36;;;;;;;0.20;0.20;;;8.80;99.90;;;;;;5031867;28;20022;-70
2022/04/07 06:06:02;;;;;;;0.17;0.17;;;8.80;99.90;;;;;;5031315;28;20080;-70
2022/04/07 06:08:28;;;;;;;0.20;0.20;;;8.90;99.90;;;;;;5029373;28;20040;-70
2022/04/07 06:10:54;;;;;;;0.30;0.30;;;9.00;99.90;;;;;;5031292;28;20030;-71
2022/04/07 06:13:20;;;;;;;0.20;0.20;;;9.00;99.90;;;;;;5033708;28;20032;-71
2022/04/07 06:15:46;;;;;;;0.10;0.10;;;8.90;99.90;;;;;;5033843;28;20025;-71
2022/04/07 06:18:13;;;;;;;0.55;0.47;;;8.90;99.90;;;;;;5035234;28;20033;-71
2022/04/07 06:20:39;;;;;;;0.10;0.10;;;8.90;99.90;;;;;;5034702;28;20384;-71
2022/04/07 06:23:05;;;;;;;0.20;0.20;;;8.80;99.90;;;;;;5035168;28;20026;-71
2022/04/07 06:25:31;;;;;;;0.22;0.22;;;8.80;99.90;;;;;;5035938;28;20468;-72
2022/04/07 06:27:59;;;;;;;0.20;0.20;;;8.90;99.90;;;;;;5047614;28;20029;-71
2022/04/07 06:30:25;;;;;;;0.20;0.20;;;8.90;99.90;;;;;;5038922;28;20562;-72
2022/04/07 06:32:52;;;;;;;3.63;0.40;;;9.00;99.90;;;;;;5034572;28;20021;-71
2022/04/07 06:35:18;;;;;;;0.65;0.40;;;9.00;99.90;;;;;;5033226;28;20018;-71
2022/04/07 06:37:45;;;;;;;0.20;0.20;;;9.10;99.90;;;;;;5033071;28;20033;-71
2022/04/07 06:40:11;;;;;;;0.20;0.20;;;9.10;99.90;;;;;;5034556;28;20029;-72
2022/04/07 06:42:37;;;;;;;0.20;0.20;;;9.10;99.90;;;;;;5034673;28;20040;-71
2022/04/07 06:45:03;;;;;;;0.30;0.30;;;9.00;99.90;;;;;;5034519;28;20481;-71
2022/04/07 06:47:39;;;;;;;0.20;0.20;;;8.90;99.90;;;;;;5034531;28;20079;-71
2022/04/07 06:50:07;;;;;;;0.20;0.20;;;8.90;99.90;;;;;;5034469;28;20388;-71
2022/04/07 06:52:32;;;;;;;0.20;0.20;;;9.00;99.90;;;;;;5034477;28;20040;-71
2022/04/07 06:54:58;;;;;;;0.20;0.20;;;9.00;99.90;;;;;;5034435;28;20026;-71
2022/04/07 06:57:24;;;;;;;0.30;0.30;;;9.10;99.90;;;;;;5032321;28;20022;-74
2022/04/07 06:59:49;;;;;;;0.20;0.20;;;9.10;99.90;;;;;;5017377;28;20033;-76
2022/04/07 07:02:15;;;;;;;0.20;0.20;;;9.10;99.90;;;;;;5034728;28;20020;-74
2022/04/07 07:04:41;;;;;;;0.22;0.22;;;9.20;99.90;;;;;;5035492;28;20113;-74
2022/04/07 07:07:06;;;;;;;0.20;0.20;;;9.30;99.90;;;;;;5034487;28;20032;-74
2022/04/07 07:09:32;;;;;;;0.30;0.30;;;9.20;99.90;;;;;;5036154;28;20095;-73
2022/04/07 07:11:58;;;;;;;0.10;0.10;;;9.20;99.90;;;;;;5033161;28;20048;-74
2022/04/07 07:14:23;;;;;;;0.15;0.15;;;9.30;99.90;;;;;;5018381;28;20045;-74
2022/04/07 07:16:49;;;;;;;0.20;0.20;;;9.50;99.90;;;;;;5028057;28;20485;-74
2022/04/07 07:19:18;;;;;;;0.20;0.20;;;9.60;99.90;;;;;;5020579;28;20041;-75
2022/04/07 07:21:44;;;;;;;0.38;0.38;;;9.60;99.90;;;;;;5022450;28;20112;-74
2022/04/07 07:24:10;;;;;;;0.20;0.20;;;9.60;99.90;;;;;;5020671;28;20044;-74
2022/04/07 07:26:36;;;;;;;0.20;0.20;;;9.70;99.90;;;;;;5020844;28;20034;-73
2022/04/07 07:29:02;;;;;;;0.28;0.28;;;9.70;99.90;;;;;;5020951;28;20032;-74
2022/04/07 07:31:29;;;;;;;0.30;0.30;;;9.80;99.90;;;;;;5020928;28;20038;-74
2022/04/07 07:33:54;;;;;;;0.28;0.28;;;9.80;99.90;;;;;;5020710;28;20037;-75
2022/04/07 07:36:20;;;;;;;0.35;0.35;;;9.90;99.90;;;;;;5022793;28;20040;-72
2022/04/07 07:38:46;;;;;;;0.20;0.20;;;10.10;99.90;;;;;;5020296;28;20120;-74
2022/04/07 07:41:11;;;;;;;0.20;0.20;;;10.20;99.90;;;;;;5004110;28;20095;-74
2022/04/07 07:43:37;;;;;;;0.20;0.20;;;10.30;99.90;;;;;;5021448;28;20030;-73
2022/04/07 07:46:03;;;;;;;1.73;0.50;;;10.50;99.90;;;;;;5021328;28;20029;-74
2022/04/07 07:48:29;;;;;;;0.43;0.40;;;10.50;99.90;;;;;;5020396;28;20042;-74
2022/04/07 07:50:56;;;;;;;0.20;0.20;;;10.70;99.90;;;;;;5021787;28;20689;-73
2022/04/07 07:53:22;;;;;;;0.20;0.20;;;10.90;99.90;;;;;;5021317;28;21383;-74
2022/04/07 07:55:49;;;;;;;0.10;0.10;;;11.10;99.90;;;;;;5021570;28;20037;-74
2022/04/07 07:58:15;;;;;;;0.10;0.10;;;11.20;99.90;;;;;;5020254;28;20618;-74
2022/04/07 08:00:41;;;;;;;0.10;0.10;;;11.20;99.90;;;;;;5020536;28;20037;-75
2022/04/07 08:03:07;;;;;;;0.13;0.13;;;11.40;99.20;;;;;;5020148;28;20045;-75
2022/04/07 08:05:33;;;;;;;0.30;0.30;;;11.40;98.00;;;;;;5020562;28;20029;-74
2022/04/07 08:07:59;;;;;;;0.10;0.10;;;11.60;97.70;;;;;;5019896;28;20037;-75
2022/04/07 08:10:25;;;;;;;0.22;0.22;;;11.70;95.70;;;;;;5020678;28;20041;-75
2022/04/07 08:12:51;;;;;;;0.57;0.57;;;11.80;95.50;;;;;;5020877;28;20132;-75
2022/04/07 08:15:16;;;;;;;0.47;0.40;;;12.00;93.30;;;;;;5021742;28;20042;-75
2022/04/07 08:17:42;;;;;;;0.20;0.20;;;11.80;92.20;;;;;;5021247;28;20110;-76
2022/04/07 08:20:08;;;;;;;0.40;0.40;;;11.90;92.70;;;;;;5021362;28;20576;-75
2022/04/07 08:22:34;;;;;;;0.22;0.22;;;12.10;91.40;;;;;;5018874;28;20440;-74
2022/04/07 08:25:00;;;;;;;0.10;0.10;;;12.50;91.00;;;;;;5021141;28;20057;-75
2022/04/07 08:27:26;;;;;;;0.10;0.10;;;12.60;89.80;;;;;;5019662;28;20044;-77
2022/04/07 08:29:52;;;;;;;0.25;0.25;;;12.60;87.00;;;;;;5003593;28;20067;-76
2022/04/07 08:32:19;;;;;;;0.20;0.20;;;12.70;86.00;;;;;;5020371;28;20022;-75
2022/04/07 08:34:44;;;;;;;0.20;0.20;;;12.90;86.50;;;;;;5017656;28;20116;-75
2022/04/07 08:37:10;;;;;;;0.57;0.40;;;12.70;86.00;;;;;;5018878;28;20146;-75
2022/04/07 08:39:36;;;;;;;0.20;0.20;;;12.50;85.90;;;;;;5018258;28;20086;-75
2022/04/07 08:42:04;;;;;;;3.20;1.05;;;12.40;87.20;;;;;;5002171;28;20041;-75
2022/04/07 08:44:33;;;;;;;0.13;0.13;;;12.60;84.90;;;;;;5018016;28;20029;-75
2022/04/07 08:47:00;;;;;;;0.10;0.10;;;13.00;85.00;;;;;;5019415;28;20026;-76
2022/04/07 08:49:29;;;;;;;0.10;0.10;;;13.40;83.90;;;;;;5001146;28;20041;-75
2022/04/07 08:51:56;;;;;;;0.20;0.20;;;13.80;81.90;;;;;;5018482;28;20025;-75
2022/04/07 08:54:22;;;;;;;0.73;0.73;;;14.00;77.00;;;;;;5019916;28;20049;-75
2022/04/07 08:56:49;;;;;;;0.20;0.20;;;14.20;79.00;;;;;;5018255;28;20037;-74
2022/04/07 08:59:15;;;;;;;0.30;0.30;;;14.10;75.10;;;;;;5019571;28;20029;-74
2022/04/07 09:01:42;;;;;;;0.65;0.65;;;14.20;76.40;;;;;;5019891;28;20018;-74
2022/04/07 09:04:11;;;;;;;0.17;0.17;;;14.10;76.10;;;;;;5019076;28;20026;-74
2022/04/07 09:06:39;;;;;;;0.20;0.20;;;14.40;74.00;;;;;;5002026;28;20063;-74
2022/04/07 09:09:19;;;;;;;0.20;0.20;;;14.50;72.60;;;;;;5001592;28;20448;-74
2022/04/07 09:11:45;;;;;;;0.20;0.20;;;14.80;72.50;;;;;;5017789;28;20061;-74
2022/04/07 09:14:12;;;;;;;0.10;0.10;;;15.00;69.80;;;;;;5019002;28;20026;-74
2022/04/07 09:16:39;;;;;;;1.00;0.40;;;14.80;69.90;;;;;;5019564;28;20029;-74
2022/04/07 09:19:06;;;;;;;0.95;0.47;;;14.80;67.50;;;;;;5017883;28;20492;-75
2022/04/07 09:21:34;;;;;;;0.15;0.15;;;15.00;65.30;;;;;;5020416;28;20113;-74
2022/04/07 09:24:00;;;;;;;3.20;0.20;;;15.10;67.70;;;;;;5019952;28;20480;-74
2022/04/07 09:26:28;;;;;;;0.15;0.15;;;15.40;64.40;;;;;;5020189;28;20032;-74
2022/04/07 09:28:56;;;;;;;0.35;0.20;;;15.60;64.60;;;;;;5018421;28;20034;-76
2022/04/07 09:31:25;;;;;;;0.10;0.10;;;16.20;62.00;;;;;;5020190;28;21100;-75
2022/04/07 09:33:55;;;;;;;0.10;0.10;;;16.50;60.20;;;;;;5019824;28;20495;-75
2022/04/07 09:36:22;;;;;;;0.20;0.20;;;16.50;61.50;;;;;;5019046;28;20025;-76
2022/04/07 09:38:55;;;;;;;0.20;0.20;;;16.40;60.80;;;;;;5017877;28;20120;-75
2022/04/07 09:41:22;;;;;;;0.95;0.30;;;16.80;59.90;;;;;;5018936;28;20091;-75
2022/04/07 09:43:58;;;;;;;0.20;0.20;;;16.80;58.10;;;;;;5019898;28;21416;-76
2022/04/07 09:46:25;;;;;;;0.20;0.20;;;16.60;58.10;;;;;;5021576;28;20037;-77
2022/04/07 09:49:06;;;;;;;0.20;0.20;;;16.50;58.50;;;;;;5022206;28;20141;-76
2022/04/07 09:51:46;;;;;;;0.20;0.20;;;17.00;54.90;;;;;;5024973;28;20037;-74
2022/04/07 09:54:14;;;;;;;0.20;0.20;;;17.00;55.40;;;;;;5022998;28;20033;-73
2022/04/07 09:56:41;;;;;;;1.35;0.73;;;16.70;54.80;;;;;;5023799;28;20073;-75
2022/04/07 09:59:07;;;;;;;0.98;0.40;;;16.80;55.10;;;;;;5003968;28;20079;-75
2022/04/07 10:01:38;;;;;;;0.20;0.20;;;17.20;55.10;;;;;;5021036;28;20032;-75
2022/04/07 10:04:08;;;;;;;1.93;0.27;;;16.90;55.20;;;;;;5021746;28;20034;-74
2022/04/07 10:06:35;;;;;;;0.40;0.40;;;16.50;54.70;;;;;;5022341;28;20458;-74
2022/04/07 10:09:09;;;;;;;0.10;0.10;;;16.20;54.50;;;;;;5021989;28;20056;-73
2022/04/07 10:11:35;;;;;;;0.10;0.10;;;15.90;55.50;;;;;;5022618;28;20120;-74
2022/04/07 10:14:02;;;;;;;3.20;0.40;;;15.90;55.90;;;;;;5021480;28;20417;-74
2022/04/07 10:16:28;;;;;;;0.20;0.20;;;15.50;55.40;;;;;;5022415;28;20041;-74
2022/04/07 10:19:04;;;;;;;1.30;0.75;;;15.20;53.30;;;;;;5019953;28;20041;-74
2022/04/07 10:21:29;;;;;;;0.10;0.10;;;15.10;54.20;;;;;;5004031;28;20040;-74
2022/04/07 10:24:15;;;;;;;0.20;0.20;;;15.00;54.30;;;;;;5021750;28;20037;-74
2022/04/07 10:26:46;;;;;;;0.20;0.20;;;15.10;53.70;;;;;;5021653;28;20104;-75
2022/04/07 10:29:22;;;;;;;0.10;0.10;;;15.30;54.20;;;;;;5003261;28;20033;-75
2022/04/07 10:32:12;;;;;;;0.43;0.32;;;15.40;56.50;;;;;;5021750;28;20052;-75
2022/04/07 10:34:42;;;;;;;0.10;0.10;;;15.40;58.80;;;;;;5021243;28;20091;-74
2022/04/07 10:37:11;;;;;;;0.10;0.10;;;15.80;56.40;;;;;;5020012;28;20142;-75
2022/04/07 10:39:41;;;;;;;0.30;0.30;;;16.10;54.70;;;;;;5019227;28;20087;-75
2022/04/07 10:42:09;;;;;;;0.10;0.10;;;16.40;57.60;;;;;;5021184;28;20032;-74
2022/04/07 10:44:36;;;;;;;8.57;0.25;;;16.30;57.50;;;;;;5020202;28;20030;-75
2022/04/07 10:47:07;;;;;;;0.10;0.10;;;16.60;54.80;;;;;;5003208;28;20033;-75
2022/04/07 10:49:33;;;;;;;0.13;0.10;;;16.40;52.20;;;;;;5003246;28;20481;-75
2022/04/07 10:52:03;;;;;;;1.13;0.25;;;16.60;51.90;;;;;;5021413;28;20037;-75
2022/04/07 10:54:30;;;;;;;0.30;0.30;;;16.60;53.30;;;;;;5020072;28;20037;-75
2022/04/07 10:56:59;;;;;;;0.10;0.10;;;17.10;52.80;;;;;;5019226;28;20114;-75
2022/04/07 10:59:25;;;;;;;0.28;0.17;;;17.50;51.60;;;;;;5020259;28;20029;-75
2022/04/07 11:01:54;;;;;;;0.10;0.10;;;18.20;50.10;;;;;;5020744;28;20021;-75
2022/04/07 11:04:23;;;;;;;0.20;0.20;;;18.30;49.40;;;;;;5019998;28;20036;-75
2022/04/07 11:07:07;;;;;;;1.02;0.30;;;17.90;49.90;;;;;;5020779;28;20034;-75
2022/04/07 11:09:45;;;;;;;0.30;0.20;;;17.20;51.10;;;;;;5020182;28;20080;-75
2022/04/07 11:12:15;;;;;;;0.10;0.10;;;16.50;51.90;;;;;;5019858;28;20080;-75
2022/04/07 11:14:46;;;;;;;0.10;0.10;;;16.40;52.70;;;;;;5019688;28;20076;-75
2022/04/07 11:17:31;;;;;;;1.55;0.20;;;16.40;53.60;;;;;;5020014;28;20041;-75
2022/04/07 11:20:13;;;;;;;0.15;0.15;;;16.50;52.10;;;;;;5020657;28;20021;-75
2022/04/07 11:22:54;;;;;;;0.10;0.10;;;16.30;52.70;;;;;;5019266;28;20037;-74
2022/04/07 11:25:36;;;;;;;0.45;0.45;;;16.20;53.10;;;;;;5020073;28;20037;-75
2022/04/07 11:28:06;;;;;;;1.38;0.20;;;16.00;52.40;;;;;;5020859;28;20033;-75
2022/04/07 11:30:38;;;;;;;0.20;0.20;;;15.90;53.60;;;;;;5020644;28;20492;-74
2022/04/07 11:33:21;;;;;;;0.10;0.10;;;15.80;54.50;;;;;;5020121;28;20444;-74
2022/04/07 11:35:58;;;;;;;;;;;15.80;55.10;;;;;;5017155;28;20017;-75
2022/04/07 11:38:34;;;;;;;0.10;0.10;;;16.00;56.10;;;;;;5017325;28;19924;-75
2022/04/07 11:41:07;;;;;;;0.10;0.10;;;15.90;55.50;;;;;;5018476;28;20067;-75
2022/04/07 11:43:35;;;;;;;0.30;0.30;;;15.80;55.50;;;;;;5019090;28;20025;-75
2022/04/07 11:46:04;;;;;;;3.20;0.73;;;15.80;54.70;;;;;;5019147;28;20212;-75
2022/04/07 11:48:32;;;;;;;0.10;0.10;;;15.70;54.90;;;;;;5020157;28;20048;-75
2022/04/07 11:51:00;;;;;;;0.13;0.13;;;15.70;54.90;;;;;;5019644;28;20029;-75
2022/04/07 11:53:27;;;;;;;0.10;0.10;;;15.50;54.50;;;;;;5019334;28;20112;-75
2022/04/07 11:55:53;;;;;;;0.60;0.38;;;15.50;55.50;;;;;;5018028;28;20045;-75
2022/04/07 11:58:19;;;;;;;0.20;0.20;;;15.30;54.30;;;;;;5017988;28;20037;-75
2022/04/07 12:00:45;;;;;;;0.10;0.10;;;15.30;55.30;;;;;;5018127;28;20139;-75
2022/04/07 12:03:10;;;;;;;0.55;0.15;;;15.30;55.80;;;;;;5018598;28;20505;-75
2022/04/07 12:05:37;;;;;;;0.30;0.30;;;15.20;55.60;;;;;;5001436;28;20022;-75
2022/04/07 12:08:10;;;;;;;0.13;0.13;;;15.10;55.70;;;;;;5018172;28;20038;-75
2022/04/07 12:10:41;;;;;;;0.10;0.10;;;15.10;56.00;;;;;;5017468;28;20539;-74
2022/04/07 12:13:08;;;;;;;0.13;0.13;;;15.10;56.00;;;;;;5017338;28;20057;-75
2022/04/07 12:15:34;;;;;;;0.10;0.10;;;15.10;56.30;;;;;;5017928;28;20037;-75
2022/04/07 12:18:06;;;;;;;0.20;0.20;;;15.00;56.20;;;;;;5018764;28;20040;-75
2022/04/07 12:20:33;;;;;;;;;;;14.90;56.40;;;;;;5019309;28;20392;-75
2022/04/07 12:23:13;;;;;;;0.85;0.40;;;14.90;57.00;;;;;;5017848;28;19909;-75
2022/04/07 12:25:43;;;;;;;0.10;0.10;;;15.00;56.90;;;;;;5019383;28;20033;-75
2022/04/07 12:28:10;;;;;;;0.85;0.40;;;15.10;57.60;;;;;;5017530;28;20061;-75
2022/04/07 12:30:45;;;;;;;0.15;0.15;;;15.20;57.00;;;;;;5001313;28;21235;-75
2022/04/07 12:33:11;;;;;;;0.57;0.57;;;15.20;56.80;;;;;;5019537;28;20084;-74
2022/04/07 12:35:46;;;;;;;0.10;0.10;;;15.30;56.80;;;;;;5001527;28;20045;-75
2022/04/07 12:38:12;;;;;;;1.45;0.20;;;15.20;56.40;;;;;;5019218;28;20038;-75
2022/04/07 12:40:39;;;;;;;0.20;0.20;;;15.30;56.90;;;;;;5018372;28;20033;-74
2022/04/07 12:43:05;;;;;;;0.10;0.10;;;15.20;57.00;;;;;;5020479;28;20428;-75
2022/04/07 12:45:31;;;;;;;0.10;0.10;;;15.20;56.80;;;;;;5021701;28;20026;-75
2022/04/07 12:48:04;;;;;;;0.47;0.32;;;15.20;57.90;;;;;;5022522;28;20033;-75
2022/04/07 12:50:32;;;;;;;0.20;0.20;;;15.20;57.30;;;;;;5022511;28;20087;-76
2022/04/07 12:52:58;;;;;;;0.10;0.10;;;15.00;57.60;;;;;;5021449;28;20394;-75
2022/04/07 12:55:37;;;;;;;0.25;0.25;;;15.10;57.80;;;;;;5018474;28;20048;-75